• location
  • image
mod_vvisit_countermod_vvisit_countermod_vvisit_countermod_vvisit_countermod_vvisit_countermod_vvisit_counter
mod_vvisit_counterToday202
mod_vvisit_counterYesterday536
mod_vvisit_counterThis week2271
mod_vvisit_counterLast week6973
mod_vvisit_counterThis month19682
mod_vvisit_counterLast month11404
mod_vvisit_counterAll days183492

We have: 2 guests online
Your IP: 54.227.13.34
 , 
Today: Jul 31, 2015
Airport

AP V2 EN

 

 

You can watch a film about services of Siauliai International Airport

Today

Friday, 31 July 2015

Weather Forecast

Siauliai 17 °C
   

Aviation Weather Forecast

[source: ADDS]
METAR
EYSA 311450Z 24012KT 210V270 9999 FEW011 BKN014 BKN088 17/14 Q1011 =
TAF
TAF EYSA 311400Z 3115/3124 24016KT 6000 BKN020 TEMPO 3115/3118 SHRA SCT010 BKN015CB TEMPO 3120/3124 3000 BR BKN005 =
SR / SS: 02:35 / 18:33 UTC (EYSA 2015-07-31)

Search

Who's Online

We have 2 guests online

tic logo en